Time;durP1;ratioP1;P1;durP2;ratioP2;P2;SDS_P1;SDS_P2;PMS_P1;PMS_P2;Temp;Humidity;BMP_temperature;BMP_pressure;BME280_temperature;BME280_humidity;BME280_pressure;Samples;Min_cycle;Max_cycle;Signal;HPM_P1;HPM_P2
2022/08/06 07:57:30;;;;;;;73.45;24.13;;;17.00;90.50;;;;;;5099272;27;20582;-81
2022/08/06 07:59:56;;;;;;;71.37;16.80;;;16.90;94.20;;;;;;5100026;28;20169;-81
2022/08/06 08:02:23;;;;;;;79.70;31.93;;;17.00;85.50;;;;;;5098836;28;20488;-82
2022/08/06 08:07:33;;;;;;;66.40;7.87;;;17.20;73.60;;;;;;5099331;28;20475;-82
2022/08/06 08:10:00;;;;;;;70.23;13.20;;;17.40;67.80;;;;;;5096836;28;20408;-81
2022/08/06 08:12:27;;;;;;;75.80;19.93;;;17.60;57.30;;;;;;5099213;28;20400;-82
2022/08/06 08:14:53;;;;;;;72.27;24.40;;;17.70;56.30;;;;;;5099323;28;20401;-82
2022/08/06 08:17:18;;;;;;;69.30;10.57;;;17.80;58.60;;;;;;5098553;28;20420;-81
2022/08/06 08:19:44;;;;;;;68.43;5.93;;;18.00;53.00;;;;;;5096952;28;20398;-82
2022/08/06 08:22:16;;;;;;;68.67;5.50;;;18.10;38.20;;;;;;5098507;28;20167;-82
2022/08/06 08:24:44;;;;;;;69.93;11.10;;;18.30;39.70;;;;;;5096847;28;20196;-82
2022/08/06 08:27:10;;;;;;;72.27;15.67;;;18.30;28.00;;;;;;5098537;28;20478;-82
2022/08/06 08:29:41;;;;;;;69.80;15.80;;;18.40;25.60;;;;;;5097125;28;20397;-82
2022/08/06 08:32:08;;;;;;;69.30;9.00;;;18.30;25.30;;;;;;5097222;28;20777;-81
2022/08/06 08:34:39;;;;;;;67.17;4.67;;;18.40;19.40;;;;;;5098501;28;20390;-82
2022/08/06 08:37:04;;;;;;;66.87;3.80;;;18.50;12.50;;;;;;5097557;28;20422;-82
2022/08/06 08:39:30;;;;;;;71.23;3.70;;;18.60;10.30;;;;;;5097805;28;20962;-82
2022/08/06 08:42:23;;;;;;;67.20;3.93;;;18.60;8.60;;;;;;5098182;28;20174;-81
2022/08/06 08:44:49;;;;;;;67.27;3.73;;;18.60;8.70;;;;;;5096649;28;20231;-82
2022/08/06 08:47:19;;;;;;;67.40;3.10;;;18.60;7.10;;;;;;5098325;28;20449;-82
2022/08/06 08:49:49;;;;;;;65.50;2.93;;;18.60;2.70;;;;;;5097431;28;20425;-82
2022/08/06 08:52:19;;;;;;;66.17;3.13;;;18.70;1.00;;;;;;5096843;28;20385;-82
2022/08/06 08:54:48;;;;;;;65.37;2.87;;;18.70;1.00;;;;;;5097006;28;20401;-82
2022/08/06 08:57:15;;;;;;;65.30;2.80;;;18.60;1.00;;;;;;5096477;28;20438;-82
2022/08/06 08:59:41;;;;;;;68.60;2.70;;;18.60;1.00;;;;;;5096741;28;20404;-82
2022/08/06 09:02:11;;;;;;;65.60;3.20;;;18.60;1.00;;;;;;5095967;28;20405;-82
2022/08/06 09:04:38;;;;;;;70.77;3.33;;;18.60;1.00;;;;;;5096320;28;20413;-82
2022/08/06 09:07:05;;;;;;;66.63;3.00;;;18.70;1.00;;;;;;5092547;28;20458;-82
2022/08/06 09:09:34;;;;;;;66.00;3.07;;;18.90;1.00;;;;;;5083571;28;20399;-82
2022/08/06 09:12:01;;;;;;;67.97;3.30;;;18.90;1.00;;;;;;5083067;28;20406;-82
2022/08/06 09:14:26;;;;;;;66.10;2.90;;;19.10;1.00;;;;;;5083461;28;20424;-82
2022/08/06 09:16:52;;;;;;;68.10;3.47;;;19.20;1.00;;;;;;5082606;28;20430;-82
2022/08/06 09:19:18;;;;;;;66.30;3.87;;;19.40;1.00;;;;;;5082158;28;20666;-82
2022/08/06 09:21:44;;;;;;;67.97;6.13;;;19.50;1.00;;;;;;5082787;28;20409;-81
2022/08/06 09:24:10;;;;;;;68.43;7.93;;;19.50;1.00;;;;;;5083824;28;20179;-82
2022/08/06 09:26:36;;;;;;;69.90;6.23;;;19.60;1.00;;;;;;5083246;28;20537;-82
2022/08/06 09:29:19;;;;;;;68.37;7.20;;;19.60;1.00;;;;;;5083077;28;20410;-82
2022/08/06 09:31:44;;;;;;;67.70;5.77;;;19.50;1.00;;;;;;5083850;28;20371;-81
2022/08/06 09:34:10;;;;;;;68.10;4.50;;;19.40;1.00;;;;;;5082485;28;20962;-82
2022/08/06 09:36:43;;;;;;;68.30;4.90;;;19.30;1.00;;;;;;5082998;28;20674;-81
2022/08/06 09:39:09;;;;;;;67.27;6.10;;;19.40;1.00;;;;;;5083585;28;20171;-81
2022/08/06 09:41:48;;;;;;;67.00;5.60;;;19.60;1.00;;;;;;5083330;28;20451;-82
2022/08/06 09:44:14;;;;;;;66.80;5.07;;;19.90;1.00;;;;;;5083945;28;20394;-81
2022/08/06 09:46:49;;;;;;;67.27;4.93;;;20.10;1.00;;;;;;5082781;28;20461;-81
2022/08/06 09:49:16;;;;;;;66.13;4.00;;;20.30;1.00;;;;;;5080680;28;20410;-82
2022/08/06 09:51:42;;;;;;;66.47;3.60;;;20.30;1.00;;;;;;5083329;28;20401;-82
2022/08/06 09:54:12;;;;;;;66.17;3.40;;;20.40;1.00;;;;;;5083184;28;20903;-82
2022/08/06 09:56:39;;;;;;;68.83;3.67;;;20.60;1.00;;;;;;5083163;28;20227;-82
2022/08/06 09:59:07;;;;;;;67.40;3.20;;;20.80;1.00;;;;;;5082656;28;20462;-82
2022/08/06 10:01:44;;;;;;;66.47;3.00;;;20.60;1.00;;;;;;5082995;28;20470;-81
2022/08/06 10:04:22;;;;;;;66.50;3.30;;;20.50;1.00;;;;;;5082501;28;20388;-82
2022/08/06 10:07:01;;;;;;;68.90;3.40;;;20.50;1.00;;;;;;5082658;28;20816;-82
2022/08/06 10:09:27;;;;;;;66.90;3.37;;;20.50;1.00;;;;;;5083837;28;20375;-82
2022/08/06 10:11:54;;;;;;;67.17;3.40;;;20.70;1.00;;;;;;5083587;28;20399;-82
2022/08/06 10:14:28;;;;;;;66.27;2.47;;;21.00;1.00;;;;;;5084111;28;20484;-82
2022/08/06 10:17:06;;;;;;;66.97;2.87;;;21.00;1.00;;;;;;5082483;28;20418;-82
2022/08/06 10:19:32;;;;;;;66.80;2.83;;;20.90;1.00;;;;;;5081751;28;20398;-81
2022/08/06 10:22:11;;;;;;;68.10;2.73;;;20.60;1.00;;;;;;5083014;28;20460;-82
2022/08/06 10:24:45;;;;;;;66.67;2.90;;;20.50;1.00;;;;;;5083593;28;20407;-82
2022/08/06 10:27:13;;;;;;;68.47;2.77;;;20.50;1.00;;;;;;5084152;28;20464;-82
2022/08/06 10:29:54;;;;;;;66.07;2.60;;;20.70;1.00;;;;;;5083093;28;20777;-82
2022/08/06 10:32:31;;;;;;;70.07;2.50;;;21.10;1.00;;;;;;5083567;28;20749;-82
2022/08/06 10:34:59;;;;;;;67.07;2.77;;;21.30;1.00;;;;;;5081506;28;20377;-82
2022/08/06 10:37:25;;;;;;;67.40;2.50;;;21.40;1.00;;;;;;5082122;28;20425;-81
2022/08/06 10:39:56;;;;;;;66.40;2.73;;;21.30;1.00;;;;;;5083881;28;20416;-82
2022/08/06 10:42:23;;;;;;;66.80;2.43;;;21.20;1.00;;;;;;5083720;28;20396;-82
2022/08/06 10:44:50;;;;;;;67.10;2.30;;;21.10;1.00;;;;;;5083888;28;20409;-82
2022/08/06 10:47:16;;;;;;;68.80;2.67;;;21.20;1.00;;;;;;5082650;28;20461;-82
2022/08/06 10:49:43;;;;;;;67.63;2.70;;;21.40;1.00;;;;;;5082183;28;20395;-82
2022/08/06 10:52:11;;;;;;;66.73;2.63;;;21.50;1.00;;;;;;5082199;28;20489;-81
2022/08/06 10:54:37;;;;;;;67.87;2.20;;;21.80;1.00;;;;;;5082605;28;20405;-82
2022/08/06 10:57:03;;;;;;;66.27;2.50;;;22.20;1.00;;;;;;5082912;28;20488;-82
2022/08/06 10:59:28;;;;;;;68.27;4.60;;;22.40;1.00;;;;;;5083810;28;20406;-82
2022/08/06 11:02:08;;;;;;;67.60;3.87;;;22.60;1.00;;;;;;5082982;28;20402;-82
2022/08/06 11:04:50;;;;;;;66.80;4.30;;;23.10;1.00;;;;;;5083403;28;20167;-82
2022/08/06 11:07:40;;;;;;;65.77;2.47;;;23.50;1.00;;;;;;5083210;28;20865;-82
2022/08/06 11:10:29;;;;;;;65.63;2.50;;;23.40;1.00;;;;;;5082421;28;20383;-82
2022/08/06 11:13:26;;;;;;;65.47;2.40;;;23.00;1.00;;;;;;5081815;28;20379;-82
2022/08/06 11:15:52;;;;;;;65.67;2.93;;;22.70;1.00;;;;;;5081946;28;20420;-82
2022/08/06 11:18:18;;;;;;;66.13;3.03;;;22.10;1.00;;;;;;5082952;28;20402;-82
2022/08/06 11:20:49;;;;;;;68.70;3.43;;;22.00;1.00;;;;;;5082283;28;20413;-82
2022/08/06 11:23:15;;;;;;;67.60;2.50;;;22.30;1.00;;;;;;5080993;28;20148;-81
2022/08/06 11:25:51;;;;;;;66.67;2.50;;;22.50;1.00;;;;;;5080402;28;20465;-82
2022/08/06 11:28:37;;;;;;;65.87;2.10;;;22.80;1.00;;;;;;5080225;28;20912;-82
2022/08/06 11:31:06;;;;;;;66.17;2.03;;;23.20;1.00;;;;;;5081202;28;20418;-82
2022/08/06 11:33:35;;;;;;;65.87;2.00;;;23.70;1.00;;;;;;5080776;28;20758;-82
2022/08/06 11:36:04;;;;;;;65.57;1.80;;;23.60;1.00;;;;;;5081740;28;20425;-81
2022/08/06 11:38:46;;;;;;;65.90;2.00;;;23.40;1.00;;;;;;5081946;28;20505;-81
2022/08/06 11:41:21;;;;;;;66.60;2.40;;;23.20;1.00;;;;;;5081899;28;20433;-81
2022/08/06 11:43:53;;;;;;;67.63;2.50;;;23.00;1.00;;;;;;5080335;28;20401;-82
2022/08/06 11:46:32;;;;;;;69.67;2.53;;;22.70;1.00;;;;;;5081968;28;20456;-82
2022/08/06 11:49:03;;;;;;;66.90;2.10;;;22.80;1.00;;;;;;5082706;28;20404;-82
2022/08/06 11:51:43;;;;;;;65.70;2.07;;;23.20;1.00;;;;;;5082368;28;20402;-81
2022/08/06 11:54:12;;;;;;;66.30;1.80;;;23.60;1.00;;;;;;5082344;28;20448;-82
2022/08/06 11:56:58;;;;;;;65.57;1.83;;;24.10;1.00;;;;;;5081285;28;20456;-82
2022/08/06 11:59:25;;;;;;;67.53;2.27;;;24.30;1.00;;;;;;5081168;28;20452;-81
2022/08/06 12:01:51;;;;;;;66.97;2.13;;;24.20;1.00;;;;;;5081332;28;20520;-81
2022/08/06 12:04:36;;;;;;;67.23;2.10;;;24.00;1.00;;;;;;5081635;28;20456;-82
2022/08/06 12:07:22;;;;;;;66.57;2.13;;;24.20;1.00;;;;;;5080851;28;20549;-81
2022/08/06 12:10:00;;;;;;;65.77;2.30;;;24.20;1.00;;;;;;5081293;28;20397;-82
2022/08/06 12:12:28;;;;;;;67.60;2.17;;;23.90;1.00;;;;;;5081919;28;20422;-80
2022/08/06 12:14:55;;;;;;;66.07;1.93;;;23.80;1.00;;;;;;5083829;28;20443;-81
2022/08/06 12:17:26;;;;;;;65.87;1.90;;;24.00;1.00;;;;;;5082916;28;20422;-82
2022/08/06 12:19:54;;;;;;;66.53;2.20;;;24.50;1.00;;;;;;5082157;28;20402;-82
2022/08/06 12:22:22;;;;;;;65.87;2.20;;;24.70;1.00;;;;;;5082678;28;20439;-82
2022/08/06 12:24:54;;;;;;;66.37;2.50;;;25.00;1.00;;;;;;5082620;28;20760;-82
2022/08/06 12:27:23;;;;;;;67.03;2.40;;;25.20;1.00;;;;;;5081824;28;20480;-82
2022/08/06 12:29:56;;;;;;;67.00;2.50;;;25.10;1.00;;;;;;5081831;28;20429;-82
2022/08/06 12:32:27;;;;;;;66.83;2.30;;;24.70;1.00;;;;;;5082067;28;20478;-82
2022/08/06 12:34:55;;;;;;;66.17;2.70;;;24.10;1.00;;;;;;5082409;28;20425;-82
2022/08/06 12:37:21;;;;;;;65.87;2.10;;;23.60;1.00;;;;;;5081944;28;20435;-82
2022/08/06 12:42:32;;;;;;;65.93;3.40;;;23.50;1.00;;;;;;5082711;28;20386;-82
2022/08/06 12:44:58;;;;;;;66.90;3.00;;;23.90;1.00;;;;;;5085708;28;20497;-82
2022/08/06 12:47:27;;;;;;;68.07;2.60;;;24.30;1.00;;;;;;5086101;28;20466;-82
2022/08/06 12:49:53;;;;;;;66.40;2.60;;;24.80;1.00;;;;;;5086246;28;20398;-81
2022/08/06 12:52:21;;;;;;;66.27;3.23;;;25.20;1.00;;;;;;5086524;28;20395;-82
2022/08/06 12:54:47;;;;;;;66.33;2.83;;;24.90;1.00;;;;;;5085027;28;20403;-82
2022/08/06 12:57:25;;;;;;;66.43;2.60;;;24.80;1.00;;;;;;5085074;28;20949;-82
2022/08/06 12:59:52;;;;;;;68.70;2.80;;;24.50;1.00;;;;;;5080140;28;20402;-82
2022/08/06 13:02:20;;;;;;;68.10;3.23;;;24.00;1.00;;;;;;5082429;28;20414;-82
2022/08/06 13:04:50;;;;;;;67.10;3.00;;;23.60;1.00;;;;;;5081697;28;20462;-82
2022/08/06 13:07:17;;;;;;;66.00;2.43;;;23.10;1.00;;;;;;5079364;28;20466;-82
2022/08/06 13:09:46;;;;;;;69.27;3.10;;;23.30;1.00;;;;;;5079540;28;20402;-84
2022/08/06 13:12:19;;;;;;;66.17;3.00;;;23.60;1.00;;;;;;5078668;28;20411;-83
2022/08/06 13:14:56;;;;;;;66.33;3.60;;;23.80;1.00;;;;;;5078708;28;20422;-83
2022/08/06 13:17:23;;;;;;;66.77;3.50;;;23.60;1.00;;;;;;5076632;28;20433;-83
2022/08/06 13:19:58;;;;;;;66.57;3.87;;;23.30;1.00;;;;;;5079087;28;20425;-83
2022/08/06 13:22:25;;;;;;;67.67;3.57;;;23.80;1.00;;;;;;5078858;28;20406;-83
2022/08/06 13:25:10;;;;;;;66.47;3.73;;;24.20;1.00;;;;;;5077806;28;20425;-82
2022/08/06 13:27:36;;;;;;;65.93;2.77;;;24.60;1.00;;;;;;5077676;28;20430;-83
2022/08/06 13:30:05;;;;;;;66.30;2.40;;;24.90;1.00;;;;;;5077941;28;20395;-83
2022/08/06 13:32:31;;;;;;;65.50;2.33;;;24.80;1.00;;;;;;5079495;28;20395;-83
2022/08/06 13:34:58;;;;;;;65.83;2.30;;;24.50;1.00;;;;;;5077881;28;20875;-83
2022/08/06 13:37:43;;;;;;;66.20;3.00;;;24.20;1.00;;;;;;5077433;28;20478;-83
2022/08/06 13:40:09;;;;;;;66.73;3.17;;;23.60;1.00;;;;;;5077384;28;20422;-83
2022/08/06 13:42:56;;;;;;;67.07;2.90;;;23.60;1.00;;;;;;5079219;28;20394;-83
2022/08/06 13:45:25;;;;;;;66.17;2.30;;;23.90;1.00;;;;;;5076188;28;20406;-83
2022/08/06 13:48:07;;;;;;;65.67;2.20;;;24.20;1.00;;;;;;5077671;28;20408;-83
2022/08/06 13:50:42;;;;;;;65.47;1.87;;;24.40;1.00;;;;;;5077388;28;20784;-83
2022/08/06 13:53:10;;;;;;;67.67;2.10;;;24.50;1.00;;;;;;5078722;28;20414;-83
2022/08/06 13:55:37;;;;;;;66.07;1.70;;;24.60;1.00;;;;;;5079214;28;20481;-83
2022/08/06 13:58:03;;;;;;;65.87;1.90;;;24.80;1.00;;;;;;5079567;28;20382;-83
2022/08/06 14:00:29;;;;;;;66.27;1.60;;;24.70;1.00;;;;;;5079435;28;20418;-83
2022/08/06 14:02:55;;;;;;;66.67;1.90;;;24.40;1.00;;;;;;5079261;28;20399;-83
2022/08/06 14:05:22;;;;;;;66.07;1.73;;;24.40;1.00;;;;;;5079055;28;20742;-83
2022/08/06 14:07:48;;;;;;;68.87;2.40;;;24.50;1.00;;;;;;5077243;28;20504;-83
2022/08/06 14:10:15;;;;;;;66.03;2.60;;;24.70;1.00;;;;;;5077338;28;20404;-83
2022/08/06 14:12:41;;;;;;;65.57;2.40;;;25.00;1.00;;;;;;5078983;28;20398;-83
2022/08/06 14:15:07;;;;;;;70.47;2.73;;;24.90;1.00;;;;;;5075985;28;20812;-83
2022/08/06 14:17:35;;;;;;;65.63;2.10;;;24.90;1.00;;;;;;5077558;28;20434;-83
2022/08/06 14:20:03;;;;;;;66.33;2.30;;;24.90;1.00;;;;;;5077154;28;20446;-83
2022/08/06 14:22:29;;;;;;;66.27;2.20;;;24.90;1.00;;;;;;5077064;28;20400;-83
2022/08/06 14:24:55;;;;;;;67.10;2.43;;;25.00;1.00;;;;;;5078384;28;20412;-83
2022/08/06 14:27:21;;;;;;;65.67;2.30;;;25.10;1.00;;;;;;5079054;28;20462;-83
2022/08/06 14:29:47;;;;;;;65.87;2.70;;;25.10;1.00;;;;;;5078438;28;20226;-83
2022/08/06 14:32:12;;;;;;;68.20;3.30;;;25.10;1.00;;;;;;5077279;28;20489;-83
2022/08/06 14:34:38;;;;;;;65.73;2.60;;;24.80;1.00;;;;;;5077695;28;20173;-83
2022/08/06 14:37:04;;;;;;;66.30;2.50;;;24.80;1.00;;;;;;5078435;28;20187;-82
2022/08/06 14:39:30;;;;;;;65.70;2.80;;;25.00;1.00;;;;;;5078656;28;20231;-83
2022/08/06 14:44:55;;;;;;;68.23;2.83;;;25.30;1.00;;;;;;5078131;28;20181;-83
2022/08/06 14:47:20;;;;;;;66.37;2.77;;;25.40;1.00;;;;;;5077100;28;20501;-83
2022/08/06 14:49:46;;;;;;;66.37;2.70;;;24.80;1.00;;;;;;5077320;28;20400;-83
2022/08/06 14:52:12;;;;;;;65.63;2.43;;;24.20;1.00;;;;;;5077177;28;20204;-83
2022/08/06 14:54:38;;;;;;;65.93;2.20;;;24.30;1.00;;;;;;5076762;28;20172;-83
2022/08/06 14:57:07;;;;;;;65.20;2.60;;;24.40;1.00;;;;;;5077681;28;20201;-83
2022/08/06 14:59:32;;;;;;;65.90;2.37;;;24.20;1.00;;;;;;5075871;28;20406;-83
2022/08/06 15:01:58;;;;;;;66.83;2.50;;;24.60;1.00;;;;;;5077792;28;20877;-83
2022/08/06 15:04:24;;;;;;;66.40;2.77;;;24.80;1.00;;;;;;5076479;28;20193;-83
2022/08/06 15:06:50;;;;;;;66.47;2.40;;;24.90;1.00;;;;;;5075522;28;20198;-83
2022/08/06 15:09:16;;;;;;;66.43;2.60;;;25.00;1.00;;;;;;5075908;28;20192;-83
2022/08/06 15:11:42;;;;;;;66.27;2.83;;;25.30;1.00;;;;;;5074740;28;20467;-83
2022/08/06 15:14:07;;;;;;;66.30;2.00;;;25.50;1.00;;;;;;5075880;28;20401;-83
2022/08/06 15:16:33;;;;;;;66.93;2.53;;;25.90;1.00;;;;;;5075293;28;20610;-83
2022/08/06 15:18:59;;;;;;;66.40;2.40;;;25.90;1.00;;;;;;5077465;28;20176;-83
2022/08/06 15:21:25;;;;;;;65.57;2.00;;;25.90;1.00;;;;;;5131185;22;20228;-86
2022/08/06 15:23:53;;;;;;;66.20;2.27;;;25.70;1.00;;;;;;5045360;28;20384;-86
2022/08/06 15:26:19;;;;;;;65.97;2.30;;;25.60;1.00;;;;;;5043118;28;20455;-85
2022/08/06 15:28:45;;;;;;;67.43;2.83;;;25.70;1.00;;;;;;5045110;28;20410;-86
2022/08/06 15:31:11;;;;;;;65.57;1.80;;;25.40;1.00;;;;;;5043992;28;20752;-86
2022/08/06 15:33:37;;;;;;;66.00;2.00;;;25.10;1.00;;;;;;5046383;28;20642;-86
2022/08/06 15:36:03;;;;;;;66.67;2.20;;;25.10;1.00;;;;;;5045809;28;20560;-86
2022/08/06 15:38:29;;;;;;;67.13;2.23;;;24.90;1.00;;;;;;5044254;28;20413;-85
2022/08/06 15:40:55;;;;;;;66.10;2.10;;;25.30;1.00;;;;;;5044095;28;20508;-86
2022/08/06 15:43:23;;;;;;;65.20;1.80;;;25.80;1.00;;;;;;5044682;28;20418;-86
2022/08/06 15:45:50;;;;;;;66.37;1.83;;;26.10;1.00;;;;;;5043851;28;20447;-86
2022/08/06 15:48:16;;;;;;;66.90;2.23;;;26.50;1.00;;;;;;5042679;28;20420;-86
2022/08/06 15:50:43;;;;;;;66.67;1.90;;;26.60;1.00;;;;;;5043391;28;20422;-86
2022/08/06 15:53:12;;;;;;;67.60;1.90;;;27.20;1.00;;;;;;5043690;28;20783;-86
2022/08/06 15:55:38;;;;;;;66.57;1.80;;;26.80;1.00;;;;;;5043192;28;20435;-86
2022/08/06 15:58:04;;;;;;;65.63;1.83;;;26.70;1.00;;;;;;5043969;28;20416;-86
2022/08/06 16:00:30;;;;;;;66.83;2.80;;;27.60;1.00;;;;;;5043092;28;20492;-85
2022/08/06 16:02:56;;;;;;;66.33;2.43;;;28.50;1.00;;;;;;5044754;28;20196;-86
2022/08/06 16:05:28;;;;;;;66.67;2.63;;;28.90;1.00;;;;;;5045095;28;20760;-86
2022/08/06 16:07:54;;;;;;;66.97;2.23;;;27.60;1.00;;;;;;5045424;28;20199;-86
2022/08/06 16:10:20;;;;;;;66.30;2.20;;;26.60;1.00;;;;;;5043326;28;20412;-87
2022/08/06 16:12:46;;;;;;;66.17;2.67;;;26.90;1.00;;;;;;5043312;28;20172;-87
2022/08/06 16:15:11;;;;;;;68.80;4.10;;;27.70;1.00;;;;;;5043787;28;20404;-86
2022/08/06 16:17:37;;;;;;;67.20;3.63;;;28.30;1.00;;;;;;5046353;28;20492;-85
2022/08/06 16:20:04;;;;;;;67.20;3.50;;;28.10;1.00;;;;;;5048216;28;20540;-86
2022/08/06 16:22:30;;;;;;;68.30;4.70;;;27.80;1.00;;;;;;5046789;28;20212;-86
2022/08/06 16:24:55;;;;;;;71.47;5.93;;;28.30;1.00;;;;;;5047249;28;20419;-86
2022/08/06 16:27:22;;;;;;;66.33;3.00;;;28.10;1.00;;;;;;5046051;28;20399;-86
2022/08/06 16:29:49;;;;;;;66.90;2.50;;;28.60;1.00;;;;;;5047404;28;20257;-86
2022/08/06 16:32:15;;;;;;;67.10;3.53;;;28.90;1.00;;;;;;5048308;28;20404;-86
2022/08/06 16:34:44;;;;;;;66.80;1.90;;;29.50;1.00;;;;;;5047558;28;20404;-86
2022/08/06 16:37:10;;;;;;;66.10;2.07;;;29.70;1.00;;;;;;5047531;28;20424;-86
2022/08/06 16:39:36;;;;;;;67.30;1.97;;;29.70;1.00;;;;;;5045883;28;20426;-86
2022/08/06 16:42:03;;;;;;;69.87;4.43;;;30.20;1.00;;;;;;5046947;28;20416;-86
2022/08/06 16:44:29;;;;;;;80.47;12.40;;;30.60;1.00;;;;;;5046254;28;20180;-87
2022/08/06 16:46:55;;;;;;;71.60;6.23;;;30.60;1.00;;;;;;5046467;28;20475;-86
2022/08/06 16:49:21;;;;;;;71.47;2.40;;;30.40;1.00;;;;;;5044446;28;20165;-86
2022/08/06 16:51:47;;;;;;;71.13;2.60;;;30.10;1.00;;;;;;5044854;28;20169;-86
2022/08/06 16:54:14;;;;;;;66.50;2.00;;;30.00;1.00;;;;;;5046602;28;20169;-86
2022/08/06 16:56:40;;;;;;;66.93;2.33;;;30.10;1.00;;;;;;5045077;28;20569;-85
2022/08/06 16:59:09;;;;;;;68.10;3.50;;;29.90;1.00;;;;;;5045537;28;20404;-85
2022/08/06 17:01:36;;;;;;;69.03;3.47;;;30.00;1.00;;;;;;5045887;28;20408;-86
2022/08/06 17:04:03;;;;;;;66.10;2.20;;;29.90;1.00;;;;;;5047322;28;20412;-86
2022/08/06 17:06:29;;;;;;;69.63;4.80;;;28.80;1.00;;;;;;5045864;28;20982;-86
2022/08/06 17:08:56;;;;;;;66.63;2.30;;;28.20;1.00;;;;;;5045783;28;20487;-86
2022/08/06 17:11:22;;;;;;;66.40;2.23;;;27.50;1.00;;;;;;5046981;28;20427;-86
2022/08/06 17:13:49;;;;;;;65.63;1.77;;;27.10;1.00;;;;;;5046425;28;20408;-86
2022/08/06 17:16:17;;;;;;;67.17;2.77;;;26.80;1.00;;;;;;5047694;28;20448;-86
2022/08/06 17:18:43;;;;;;;67.37;2.10;;;27.50;1.00;;;;;;5047224;28;20410;-87
2022/08/06 17:21:09;;;;;;;66.30;1.90;;;28.00;1.00;;;;;;5046003;28;20488;-86
2022/08/06 17:23:35;;;;;;;67.57;2.10;;;28.00;1.00;;;;;;5047620;28;20176;-87
2022/08/06 17:26:00;;;;;;;66.37;2.17;;;27.80;1.00;;;;;;5044870;28;20204;-86
2022/08/06 17:28:26;;;;;;;66.80;2.10;;;27.70;1.00;;;;;;5046005;28;20162;-85
2022/08/06 17:30:52;;;;;;;66.00;1.80;;;27.80;1.00;;;;;;5046920;28;20217;-86
2022/08/06 17:33:18;;;;;;;65.80;1.77;;;28.10;1.00;;;;;;5045244;28;20173;-86
2022/08/06 17:35:44;;;;;;;65.50;1.70;;;28.20;1.00;;;;;;5045352;28;20193;-86
2022/08/06 17:38:12;;;;;;;66.80;1.70;;;27.50;1.00;;;;;;5045499;28;20412;-86
2022/08/06 17:40:38;;;;;;;65.90;1.67;;;26.80;1.00;;;;;;5046579;28;20161;-86
2022/08/06 17:43:11;;;;;;;65.47;1.80;;;25.80;1.00;;;;;;5047099;28;20404;-86
2022/08/06 17:45:38;;;;;;;65.67;1.63;;;25.60;1.00;;;;;;5046733;28;20216;-86
2022/08/06 17:48:06;;;;;;;67.13;1.87;;;25.10;1.00;;;;;;5044868;28;20931;-86
2022/08/06 17:50:34;;;;;;;67.57;2.00;;;25.00;1.00;;;;;;5045176;28;20439;-86
2022/08/06 17:53:00;;;;;;;65.27;1.60;;;24.80;1.00;;;;;;5047184;28;20410;-85
2022/08/06 17:55:26;;;;;;;65.30;2.10;;;24.30;1.00;;;;;;5043392;28;20396;-86
2022/08/06 17:57:52;;;;;;;66.50;3.00;;;23.50;1.00;;;;;;5045472;28;20404;-86
2022/08/06 18:00:18;;;;;;;65.90;3.37;;;23.70;1.00;;;;;;5044327;28;20869;-86
2022/08/06 18:02:44;;;;;;;68.10;3.10;;;23.70;1.00;;;;;;5044428;28;20161;-86
2022/08/06 18:05:12;;;;;;;66.27;2.90;;;23.90;1.00;;;;;;5044639;28;20485;-86
2022/08/06 18:07:38;;;;;;;66.27;3.30;;;23.90;1.00;;;;;;5044126;28;20579;-86
2022/08/06 18:10:22;;;;;;;66.87;3.47;;;23.90;1.00;;;;;;5046689;28;20443;-86
2022/08/06 18:12:49;;;;;;;66.67;3.27;;;23.70;1.00;;;;;;5045768;28;20167;-86
2022/08/06 18:15:16;;;;;;;66.53;3.23;;;23.50;1.00;;;;;;5045293;28;20838;-86
2022/08/06 18:17:42;;;;;;;65.93;2.90;;;23.50;1.00;;;;;;5047182;28;20412;-85
2022/08/06 18:20:08;;;;;;;66.20;2.60;;;23.20;1.00;;;;;;5044324;28;20550;-86
2022/08/06 18:22:34;;;;;;;66.27;2.37;;;23.30;1.00;;;;;;5045076;28;20181;-86
2022/08/06 18:25:00;;;;;;;65.07;2.13;;;23.30;1.00;;;;;;5045193;28;20428;-86
2022/08/06 18:27:26;;;;;;;67.07;1.90;;;23.20;1.00;;;;;;5045486;28;20197;-86
2022/08/06 18:29:55;;;;;;;65.87;2.23;;;22.80;1.00;;;;;;5047073;28;20506;-86
2022/08/06 18:32:21;;;;;;;68.00;2.13;;;22.40;1.00;;;;;;5044618;28;20260;-86
2022/08/06 18:34:48;;;;;;;69.33;2.37;;;22.30;1.00;;;;;;5044203;28;20757;-87
2022/08/06 18:37:14;;;;;;;66.87;2.50;;;22.20;1.00;;;;;;5044128;28;20439;-86
2022/08/06 18:39:40;;;;;;;66.20;2.43;;;22.20;1.00;;;;;;5042619;28;20424;-85
2022/08/06 18:42:06;;;;;;;65.70;2.20;;;22.20;1.00;;;;;;5042540;28;20492;-86
2022/08/06 18:44:32;;;;;;;66.40;2.50;;;22.20;1.00;;;;;;5043038;28;20447;-86
2022/08/06 18:47:01;;;;;;;65.83;2.67;;;22.20;1.00;;;;;;5043881;28;20502;-86
2022/08/06 18:49:26;;;;;;;66.10;2.37;;;22.10;1.00;;;;;;5044053;28;20818;-85
2022/08/06 18:51:54;;;;;;;66.30;2.67;;;22.10;1.00;;;;;;5042854;28;20416;-86
2022/08/06 18:54:21;;;;;;;66.10;2.10;;;22.10;1.00;;;;;;5043861;28;20258;-85
2022/08/06 18:56:46;;;;;;;66.10;2.07;;;21.80;1.00;;;;;;5042478;28;20458;-86
2022/08/06 18:59:12;;;;;;;66.13;2.30;;;21.70;1.00;;;;;;5042202;28;20479;-86
2022/08/06 19:01:38;;;;;;;65.93;2.20;;;21.90;1.00;;;;;;5043376;28;20249;-86
2022/08/06 19:04:05;;;;;;;66.30;2.20;;;22.00;1.00;;;;;;5042035;28;20208;-84
2022/08/06 19:06:31;;;;;;;65.87;2.20;;;21.90;1.00;;;;;;5042063;28;20587;-86
2022/08/06 19:08:58;;;;;;;67.90;2.13;;;21.70;1.00;;;;;;5043127;28;20404;-86
2022/08/06 19:11:27;;;;;;;67.07;2.63;;;21.70;1.00;;;;;;5042408;28;20428;-86
2022/08/06 19:13:52;;;;;;;67.13;2.50;;;21.60;1.00;;;;;;5043528;28;20405;-85
2022/08/06 19:16:18;;;;;;;68.40;4.00;;;21.70;1.00;;;;;;5043300;28;20961;-85
2022/08/06 19:18:44;;;;;;;68.07;4.80;;;21.60;1.00;;;;;;5042496;28;20244;-86
2022/08/06 19:21:10;;;;;;;68.13;3.87;;;21.50;1.00;;;;;;5042942;28;20236;-85
2022/08/06 19:23:36;;;;;;;66.47;3.23;;;21.60;1.00;;;;;;5042164;28;20889;-85
2022/08/06 19:26:03;;;;;;;67.07;5.20;;;21.60;1.00;;;;;;5041779;28;20580;-85
2022/08/06 19:28:28;;;;;;;67.07;4.80;;;21.60;1.00;;;;;;5042495;28;20166;-86
2022/08/06 19:30:54;;;;;;;67.37;4.73;;;21.50;1.00;;;;;;5042334;28;20465;-86
2022/08/06 19:33:20;;;;;;;67.43;4.90;;;21.50;1.00;;;;;;5041257;28;20170;-87
2022/08/06 19:35:46;;;;;;;66.77;4.37;;;21.50;1.00;;;;;;5042007;28;20496;-86
2022/08/06 19:38:12;;;;;;;69.40;4.87;;;21.40;1.00;;;;;;5040780;28;20286;-85
2022/08/06 19:40:45;;;;;;;67.10;3.50;;;21.30;1.00;;;;;;5041347;28;20404;-85
2022/08/06 19:43:15;;;;;;;67.40;3.53;;;21.30;1.00;;;;;;5042254;28;20946;-85
2022/08/06 19:45:44;;;;;;;68.43;3.87;;;21.20;1.00;;;;;;5041975;28;20428;-85
2022/08/06 19:48:11;;;;;;;70.77;5.87;;;21.10;1.00;;;;;;5041230;28;20418;-85
2022/08/06 19:50:37;;;;;;;73.20;7.63;;;21.00;1.00;;;;;;5040761;28;20409;-85
2022/08/06 19:53:04;;;;;;;73.90;9.00;;;21.00;1.00;;;;;;5041396;28;20411;-85
2022/08/06 19:55:30;;;;;;;71.47;8.10;;;20.90;1.00;;;;;;5043176;28;20414;-86
2022/08/06 19:57:55;;;;;;;69.00;6.73;;;20.90;1.00;;;;;;5043845;28;20423;-87
2022/08/06 20:00:24;;;;;;;66.53;3.40;;;20.70;1.00;;;;;;5041932;28;20419;-87
2022/08/06 20:02:53;;;;;;;67.70;4.80;;;20.60;1.00;;;;;;5042392;28;20169;-87
2022/08/06 20:05:23;;;;;;;68.00;4.00;;;20.50;1.00;;;;;;5043044;28;20883;-86
2022/08/06 20:07:50;;;;;;;70.60;5.37;;;20.40;1.00;;;;;;5041662;28;20929;-87
2022/08/06 20:10:17;;;;;;;69.43;6.10;;;20.20;1.00;;;;;;5043598;28;20424;-87
2022/08/06 20:12:42;;;;;;;67.97;6.20;;;20.30;1.00;;;;;;5041872;28;20408;-87
2022/08/06 20:15:14;;;;;;;68.37;5.23;;;20.20;1.00;;;;;;5042985;28;20453;-87
2022/08/06 20:17:41;;;;;;;68.47;5.03;;;20.20;1.00;;;;;;5039776;28;20166;-85
2022/08/06 20:20:08;;;;;;;67.60;4.20;;;20.30;1.00;;;;;;5041288;28;20483;-85
2022/08/06 20:22:35;;;;;;;67.47;4.60;;;20.30;1.00;;;;;;5039495;28;20445;-85
2022/08/06 20:25:02;;;;;;;66.73;3.47;;;20.30;1.00;;;;;;5040124;28;20404;-85
2022/08/06 20:27:27;;;;;;;67.70;3.73;;;20.20;1.00;;;;;;5040469;28;20809;-86
2022/08/06 20:29:53;;;;;;;67.50;4.80;;;20.10;1.00;;;;;;5041155;28;20491;-85
2022/08/06 20:32:19;;;;;;;68.20;5.00;;;19.90;1.00;;;;;;5039033;28;20629;-85
2022/08/06 20:34:44;;;;;;;70.13;4.63;;;19.60;1.00;;;;;;5040334;28;20291;-85
2022/08/06 20:37:10;;;;;;;68.70;4.70;;;19.30;1.00;;;;;;5039973;28;20208;-86
2022/08/06 20:39:36;;;;;;;68.37;4.30;;;19.30;1.00;;;;;;5038674;28;20174;-84
2022/08/06 20:42:02;;;;;;;67.10;3.70;;;19.20;1.00;;;;;;5040375;28;20176;-85
2022/08/06 20:44:27;;;;;;;67.27;3.50;;;19.10;1.00;;;;;;5040299;28;20162;-85
2022/08/06 20:46:53;;;;;;;67.40;4.20;;;19.10;1.00;;;;;;5039878;28;20217;-86
2022/08/06 20:49:19;;;;;;;67.67;3.70;;;18.90;1.00;;;;;;5040461;28;20210;-85
2022/08/06 20:51:44;;;;;;;67.30;3.90;;;18.80;1.00;;;;;;5038297;28;20166;-85
2022/08/06 20:54:11;;;;;;;67.73;4.53;;;18.70;1.00;;;;;;5040438;28;20166;-85
2022/08/06 20:56:37;;;;;;;68.30;4.43;;;18.70;1.00;;;;;;5040068;28;20190;-86